sensor_id;sensor_type;location;lat;lon;timestamp;P1;durP1;ratioP1;P2;durP2;ratioP2
16804;SDS011;8520;50.102;20.010;2022-12-05T00:01:34;65.50;;;52.63;;
16804;SDS011;8520;50.102;20.010;2022-12-05T00:04:05;59.40;;;53.87;;
16804;SDS011;8520;50.102;20.010;2022-12-05T00:06:35;105.47;;;58.10;;
16804;SDS011;8520;50.102;20.010;2022-12-05T00:09:06;333.40;;;82.20;;
16804;SDS011;8520;50.102;20.010;2022-12-05T00:11:36;59.00;;;53.03;;
16804;SDS011;8520;50.102;20.010;2022-12-05T00:14:08;59.27;;;53.77;;
16804;SDS011;8520;50.102;20.010;2022-12-05T00:16:37;59.83;;;53.80;;
16804;SDS011;8520;50.102;20.010;2022-12-05T00:19:07;174.20;;;64.23;;
16804;SDS011;8520;50.102;20.010;2022-12-05T00:21:37;80.70;;;56.40;;
16804;SDS011;8520;50.102;20.010;2022-12-05T00:24:06;65.37;;;55.30;;
16804;SDS011;8520;50.102;20.010;2022-12-05T00:26:36;167.93;;;63.23;;
16804;SDS011;8520;50.102;20.010;2022-12-05T00:29:05;101.63;;;56.83;;
16804;SDS011;8520;50.102;20.010;2022-12-05T00:31:33;78.53;;;56.83;;
16804;SDS011;8520;50.102;20.010;2022-12-05T00:34:02;133.70;;;62.83;;
16804;SDS011;8520;50.102;20.010;2022-12-05T00:36:31;141.43;;;61.00;;
16804;SDS011;8520;50.102;20.010;2022-12-05T00:39:01;217.83;;;72.53;;
16804;SDS011;8520;50.102;20.010;2022-12-05T00:41:32;132.97;;;61.53;;
16804;SDS011;8520;50.102;20.010;2022-12-05T00:44:02;160.10;;;64.30;;
16804;SDS011;8520;50.102;20.010;2022-12-05T00:46:31;152.13;;;62.23;;
16804;SDS011;8520;50.102;20.010;2022-12-05T00:49:00;316.87;;;80.17;;
16804;SDS011;8520;50.102;20.010;2022-12-05T00:51:30;75.60;;;57.70;;
16804;SDS011;8520;50.102;20.010;2022-12-05T00:54:00;116.93;;;60.53;;
16804;SDS011;8520;50.102;20.010;2022-12-05T00:56:30;160.03;;;65.50;;
16804;SDS011;8520;50.102;20.010;2022-12-05T00:58:59;286.63;;;76.27;;
16804;SDS011;8520;50.102;20.010;2022-12-05T01:01:30;64.03;;;56.60;;
16804;SDS011;8520;50.102;20.010;2022-12-05T01:04:00;99.10;;;59.53;;
16804;SDS011;8520;50.102;20.010;2022-12-05T01:06:31;183.27;;;66.70;;
16804;SDS011;8520;50.102;20.010;2022-12-05T01:08:59;64.63;;;57.80;;
16804;SDS011;8520;50.102;20.010;2022-12-05T01:11:28;91.13;;;58.73;;
16804;SDS011;8520;50.102;20.010;2022-12-05T01:14:01;116.90;;;62.83;;
16804;SDS011;8520;50.102;20.010;2022-12-05T01:16:30;74.60;;;58.87;;
16804;SDS011;8520;50.102;20.010;2022-12-05T01:19:00;93.57;;;60.27;;
16804;SDS011;8520;50.102;20.010;2022-12-05T01:21:30;130.80;;;64.33;;
16804;SDS011;8520;50.102;20.010;2022-12-05T01:23:59;97.23;;;60.93;;
16804;SDS011;8520;50.102;20.010;2022-12-05T01:26:27;88.70;;;58.00;;
16804;SDS011;8520;50.102;20.010;2022-12-05T01:28:55;99.10;;;62.40;;
16804;SDS011;8520;50.102;20.010;2022-12-05T01:31:25;209.87;;;70.17;;
16804;SDS011;8520;50.102;20.010;2022-12-05T01:33:55;242.13;;;75.57;;
16804;SDS011;8520;50.102;20.010;2022-12-05T01:36:25;118.63;;;64.70;;
16804;SDS011;8520;50.102;20.010;2022-12-05T01:38:54;80.33;;;59.30;;
16804;SDS011;8520;50.102;20.010;2022-12-05T01:41:24;223.67;;;71.33;;
16804;SDS011;8520;50.102;20.010;2022-12-05T01:43:55;67.70;;;59.73;;
16804;SDS011;8520;50.102;20.010;2022-12-05T01:46:27;123.97;;;63.20;;
16804;SDS011;8520;50.102;20.010;2022-12-05T01:48:58;254.33;;;78.00;;
16804;SDS011;8520;50.102;20.010;2022-12-05T01:51:29;91.87;;;61.17;;
16804;SDS011;8520;50.102;20.010;2022-12-05T01:54:00;70.13;;;60.87;;
16804;SDS011;8520;50.102;20.010;2022-12-05T01:56:28;143.53;;;67.00;;
16804;SDS011;8520;50.102;20.010;2022-12-05T01:59:00;131.57;;;62.80;;
16804;SDS011;8520;50.102;20.010;2022-12-05T02:01:31;168.87;;;65.27;;
16804;SDS011;8520;50.102;20.010;2022-12-05T02:04:00;63.23;;;56.87;;
16804;SDS011;8520;50.102;20.010;2022-12-05T02:06:29;64.77;;;58.23;;
16804;SDS011;8520;50.102;20.010;2022-12-05T02:11:56;63.97;;;57.77;;
16804;SDS011;8520;50.102;20.010;2022-12-05T02:14:28;82.60;;;59.90;;
16804;SDS011;8520;50.102;20.010;2022-12-05T02:17:04;81.83;;;57.43;;
16804;SDS011;8520;50.102;20.010;2022-12-05T02:19:42;64.20;;;57.27;;
16804;SDS011;8520;50.102;20.010;2022-12-05T02:22:22;124.77;;;61.37;;
16804;SDS011;8520;50.102;20.010;2022-12-05T02:29:18;66.30;;;59.93;;
16804;SDS011;8520;50.102;20.010;2022-12-05T02:31:59;94.13;;;62.53;;
16804;SDS011;8520;50.102;20.010;2022-12-05T02:34:34;215.00;;;74.73;;
16804;SDS011;8520;50.102;20.010;2022-12-05T02:37:08;128.33;;;63.67;;
16804;SDS011;8520;50.102;20.010;2022-12-05T02:39:43;293.57;;;76.20;;
16804;SDS011;8520;50.102;20.010;2022-12-05T02:42:14;152.60;;;62.37;;
16804;SDS011;8520;50.102;20.010;2022-12-05T02:44:49;79.67;;;58.97;;
16804;SDS011;8520;50.102;20.010;2022-12-05T02:47:23;154.13;;;63.93;;
16804;SDS011;8520;50.102;20.010;2022-12-05T02:49:54;71.17;;;57.37;;
16804;SDS011;8520;50.102;20.010;2022-12-05T02:52:24;62.17;;;56.37;;
16804;SDS011;8520;50.102;20.010;2022-12-05T02:54:54;82.17;;;58.10;;
16804;SDS011;8520;50.102;20.010;2022-12-05T02:57:22;159.37;;;63.17;;
16804;SDS011;8520;50.102;20.010;2022-12-05T02:59:50;224.43;;;70.90;;
16804;SDS011;8520;50.102;20.010;2022-12-05T03:02:23;162.47;;;62.00;;
16804;SDS011;8520;50.102;20.010;2022-12-05T03:04:53;165.10;;;64.53;;
16804;SDS011;8520;50.102;20.010;2022-12-05T03:07:25;62.53;;;54.63;;
16804;SDS011;8520;50.102;20.010;2022-12-05T03:09:57;290.80;;;80.53;;
16804;SDS011;8520;50.102;20.010;2022-12-05T03:12:29;96.77;;;57.97;;
16804;SDS011;8520;50.102;20.010;2022-12-05T03:15:00;59.00;;;52.87;;
16804;SDS011;8520;50.102;20.010;2022-12-05T03:17:34;222.57;;;69.10;;
16804;SDS011;8520;50.102;20.010;2022-12-05T03:20:07;61.10;;;53.77;;
16804;SDS011;8520;50.102;20.010;2022-12-05T03:22:41;59.37;;;53.17;;
16804;SDS011;8520;50.102;20.010;2022-12-05T03:25:15;138.30;;;57.57;;
16804;SDS011;8520;50.102;20.010;2022-12-05T03:27:45;199.97;;;66.47;;
16804;SDS011;8520;50.102;20.010;2022-12-05T03:30:17;501.87;;;96.63;;
16804;SDS011;8520;50.102;20.010;2022-12-05T03:32:49;319.67;;;79.53;;
16804;SDS011;8520;50.102;20.010;2022-12-05T03:35:25;434.13;;;82.40;;
16804;SDS011;8520;50.102;20.010;2022-12-05T03:38:02;228.87;;;71.50;;
16804;SDS011;8520;50.102;20.010;2022-12-05T03:40:37;152.73;;;61.63;;
16804;SDS011;8520;50.102;20.010;2022-12-05T03:43:09;59.27;;;53.43;;
16804;SDS011;8520;50.102;20.010;2022-12-05T03:45:44;121.73;;;59.67;;
16804;SDS011;8520;50.102;20.010;2022-12-05T03:48:19;96.83;;;55.07;;
16804;SDS011;8520;50.102;20.010;2022-12-05T03:50:53;91.83;;;54.60;;
16804;SDS011;8520;50.102;20.010;2022-12-05T03:53:24;276.33;;;72.40;;
16804;SDS011;8520;50.102;20.010;2022-12-05T03:55:56;199.23;;;62.17;;
16804;SDS011;8520;50.102;20.010;2022-12-05T03:58:30;88.97;;;55.03;;
16804;SDS011;8520;50.102;20.010;2022-12-05T04:01:03;94.23;;;54.57;;
16804;SDS011;8520;50.102;20.010;2022-12-05T04:03:36;116.77;;;56.83;;
16804;SDS011;8520;50.102;20.010;2022-12-05T04:06:14;108.27;;;56.07;;
16804;SDS011;8520;50.102;20.010;2022-12-05T04:08:49;506.50;;;88.17;;
16804;SDS011;8520;50.102;20.010;2022-12-05T04:11:22;57.67;;;52.13;;
16804;SDS011;8520;50.102;20.010;2022-12-05T04:13:53;792.33;;;117.73;;
16804;SDS011;8520;50.102;20.010;2022-12-05T04:16:26;702.00;;;106.87;;
16804;SDS011;8520;50.102;20.010;2022-12-05T04:19:18;577.83;;;90.33;;
16804;SDS011;8520;50.102;20.010;2022-12-05T04:21:53;116.87;;;56.70;;
16804;SDS011;8520;50.102;20.010;2022-12-05T04:24:24;128.70;;;56.30;;
16804;SDS011;8520;50.102;20.010;2022-12-05T04:27:17;58.50;;;53.03;;
16804;SDS011;8520;50.102;20.010;2022-12-05T04:29:52;266.03;;;68.23;;
16804;SDS011;8520;50.102;20.010;2022-12-05T04:32:27;193.53;;;63.30;;
16804;SDS011;8520;50.102;20.010;2022-12-05T04:35:04;307.27;;;71.27;;
16804;SDS011;8520;50.102;20.010;2022-12-05T04:37:39;132.23;;;56.50;;
16804;SDS011;8520;50.102;20.010;2022-12-05T04:40:11;337.77;;;73.53;;
16804;SDS011;8520;50.102;20.010;2022-12-05T04:42:44;284.80;;;69.63;;
16804;SDS011;8520;50.102;20.010;2022-12-05T04:45:14;394.80;;;70.60;;
16804;SDS011;8520;50.102;20.010;2022-12-05T04:47:46;605.40;;;98.90;;
16804;SDS011;8520;50.102;20.010;2022-12-05T04:50:19;724.90;;;114.17;;
16804;SDS011;8520;50.102;20.010;2022-12-05T04:52:49;64.17;;;51.33;;
16804;SDS011;8520;50.102;20.010;2022-12-05T04:55:22;296.00;;;67.07;;
16804;SDS011;8520;50.102;20.010;2022-12-05T04:57:55;607.17;;;96.00;;
16804;SDS011;8520;50.102;20.010;2022-12-05T05:00:31;195.07;;;62.83;;
16804;SDS011;8520;50.102;20.010;2022-12-05T05:03:05;706.57;;;107.43;;
16804;SDS011;8520;50.102;20.010;2022-12-05T05:05:40;281.33;;;68.70;;
16804;SDS011;8520;50.102;20.010;2022-12-05T05:08:16;185.23;;;64.57;;
16804;SDS011;8520;50.102;20.010;2022-12-05T05:13:40;137.23;;;56.83;;
16804;SDS011;8520;50.102;20.010;2022-12-05T05:16:11;485.57;;;82.87;;
16804;SDS011;8520;50.102;20.010;2022-12-05T05:18:43;56.77;;;51.27;;
16804;SDS011;8520;50.102;20.010;2022-12-05T05:21:18;149.73;;;55.87;;
16804;SDS011;8520;50.102;20.010;2022-12-05T05:23:47;127.73;;;56.30;;
16804;SDS011;8520;50.102;20.010;2022-12-05T05:26:15;117.03;;;54.87;;
16804;SDS011;8520;50.102;20.010;2022-12-05T05:28:44;423.43;;;83.80;;
16804;SDS011;8520;50.102;20.010;2022-12-05T05:31:12;118.17;;;55.50;;
16804;SDS011;8520;50.102;20.010;2022-12-05T05:33:41;96.30;;;53.47;;
16804;SDS011;8520;50.102;20.010;2022-12-05T05:36:10;309.10;;;75.10;;
16804;SDS011;8520;50.102;20.010;2022-12-05T05:38:42;55.57;;;50.23;;
16804;SDS011;8520;50.102;20.010;2022-12-05T05:41:15;55.73;;;50.33;;
16804;SDS011;8520;50.102;20.010;2022-12-05T05:43:45;114.37;;;55.30;;
16804;SDS011;8520;50.102;20.010;2022-12-05T05:46:14;63.17;;;51.73;;
16804;SDS011;8520;50.102;20.010;2022-12-05T05:48:44;110.90;;;57.20;;
16804;SDS011;8520;50.102;20.010;2022-12-05T05:51:13;113.23;;;57.70;;
16804;SDS011;8520;50.102;20.010;2022-12-05T05:53:44;296.90;;;75.43;;
16804;SDS011;8520;50.102;20.010;2022-12-05T05:56:12;174.87;;;59.27;;
16804;SDS011;8520;50.102;20.010;2022-12-05T05:58:47;57.90;;;52.17;;
16804;SDS011;8520;50.102;20.010;2022-12-05T06:01:17;147.23;;;60.77;;
16804;SDS011;8520;50.102;20.010;2022-12-05T06:03:46;59.20;;;52.90;;
16804;SDS011;8520;50.102;20.010;2022-12-05T06:06:16;57.00;;;51.77;;
16804;SDS011;8520;50.102;20.010;2022-12-05T06:08:46;57.37;;;51.93;;
16804;SDS011;8520;50.102;20.010;2022-12-05T06:11:16;471.67;;;92.30;;
16804;SDS011;8520;50.102;20.010;2022-12-05T06:13:51;182.83;;;63.23;;
16804;SDS011;8520;50.102;20.010;2022-12-05T06:16:19;75.80;;;54.50;;
16804;SDS011;8520;50.102;20.010;2022-12-05T06:18:48;58.10;;;52.87;;
16804;SDS011;8520;50.102;20.010;2022-12-05T06:21:16;114.27;;;58.13;;
16804;SDS011;8520;50.102;20.010;2022-12-05T06:23:44;66.47;;;54.77;;
16804;SDS011;8520;50.102;20.010;2022-12-05T06:26:15;429.07;;;86.07;;
16804;SDS011;8520;50.102;20.010;2022-12-05T06:28:46;57.93;;;52.37;;
16804;SDS011;8520;50.102;20.010;2022-12-05T06:31:15;147.90;;;61.70;;
16804;SDS011;8520;50.102;20.010;2022-12-05T06:33:44;59.60;;;54.03;;
16804;SDS011;8520;50.102;20.010;2022-12-05T06:36:13;107.27;;;59.80;;
16804;SDS011;8520;50.102;20.010;2022-12-05T06:38:43;67.40;;;57.60;;
16804;SDS011;8520;50.102;20.010;2022-12-05T06:41:12;79.80;;;56.80;;
16804;SDS011;8520;50.102;20.010;2022-12-05T06:43:44;202.43;;;69.67;;
16804;SDS011;8520;50.102;20.010;2022-12-05T06:46:13;68.17;;;57.33;;
16804;SDS011;8520;50.102;20.010;2022-12-05T06:48:41;228.47;;;68.20;;
16804;SDS011;8520;50.102;20.010;2022-12-05T06:51:10;60.60;;;54.13;;
16804;SDS011;8520;50.102;20.010;2022-12-05T06:53:39;62.70;;;55.53;;
16804;SDS011;8520;50.102;20.010;2022-12-05T06:56:08;60.23;;;54.07;;
16804;SDS011;8520;50.102;20.010;2022-12-05T06:58:39;56.97;;;51.87;;
16804;SDS011;8520;50.102;20.010;2022-12-05T07:01:09;63.27;;;53.73;;
16804;SDS011;8520;50.102;20.010;2022-12-05T07:03:56;80.40;;;54.77;;
16804;SDS011;8520;50.102;20.010;2022-12-05T07:06:24;69.00;;;54.50;;
16804;SDS011;8520;50.102;20.010;2022-12-05T07:08:53;57.60;;;52.37;;
16804;SDS011;8520;50.102;20.010;2022-12-05T07:11:21;119.10;;;59.03;;
16804;SDS011;8520;50.102;20.010;2022-12-05T07:13:50;99.73;;;55.83;;
16804;SDS011;8520;50.102;20.010;2022-12-05T07:16:19;58.07;;;52.27;;
16804;SDS011;8520;50.102;20.010;2022-12-05T07:18:47;55.17;;;50.47;;
16804;SDS011;8520;50.102;20.010;2022-12-05T07:21:15;56.77;;;51.10;;
16804;SDS011;8520;50.102;20.010;2022-12-05T07:23:45;95.40;;;54.43;;
16804;SDS011;8520;50.102;20.010;2022-12-05T07:26:16;56.20;;;49.93;;
16804;SDS011;8520;50.102;20.010;2022-12-05T07:28:46;55.40;;;49.60;;
16804;SDS011;8520;50.102;20.010;2022-12-05T07:31:16;53.00;;;48.37;;
16804;SDS011;8520;50.102;20.010;2022-12-05T07:33:46;54.40;;;49.13;;
16804;SDS011;8520;50.102;20.010;2022-12-05T07:36:14;54.30;;;49.07;;
16804;SDS011;8520;50.102;20.010;2022-12-05T07:38:44;51.00;;;46.80;;
16804;SDS011;8520;50.102;20.010;2022-12-05T07:41:13;59.80;;;49.23;;
16804;SDS011;8520;50.102;20.010;2022-12-05T07:43:46;51.73;;;46.40;;
16804;SDS011;8520;50.102;20.010;2022-12-05T07:46:15;51.40;;;46.97;;
16804;SDS011;8520;50.102;20.010;2022-12-05T07:48:43;50.73;;;46.17;;
16804;SDS011;8520;50.102;20.010;2022-12-05T07:51:12;51.43;;;46.97;;
16804;SDS011;8520;50.102;20.010;2022-12-05T07:53:40;55.83;;;46.90;;
16804;SDS011;8520;50.102;20.010;2022-12-05T07:56:10;49.47;;;45.30;;
16804;SDS011;8520;50.102;20.010;2022-12-05T07:58:42;48.87;;;44.87;;
16804;SDS011;8520;50.102;20.010;2022-12-05T08:01:11;50.60;;;45.60;;
16804;SDS011;8520;50.102;20.010;2022-12-05T08:03:43;50.43;;;45.63;;
16804;SDS011;8520;50.102;20.010;2022-12-05T08:06:12;66.30;;;59.90;;
16804;SDS011;8520;50.102;20.010;2022-12-05T08:08:41;47.43;;;43.30;;
16804;SDS011;8520;50.102;20.010;2022-12-05T08:11:10;46.63;;;42.80;;
16804;SDS011;8520;50.102;20.010;2022-12-05T08:13:40;46.43;;;42.60;;
16804;SDS011;8520;50.102;20.010;2022-12-05T08:16:09;45.73;;;42.03;;
16804;SDS011;8520;50.102;20.010;2022-12-05T08:18:39;47.67;;;43.70;;
16804;SDS011;8520;50.102;20.010;2022-12-05T08:21:09;47.03;;;43.23;;
16804;SDS011;8520;50.102;20.010;2022-12-05T08:23:38;46.00;;;42.23;;
16804;SDS011;8520;50.102;20.010;2022-12-05T08:26:08;45.07;;;41.33;;
16804;SDS011;8520;50.102;20.010;2022-12-05T08:28:38;45.40;;;41.60;;
16804;SDS011;8520;50.102;20.010;2022-12-05T08:31:06;43.43;;;39.93;;
16804;SDS011;8520;50.102;20.010;2022-12-05T08:33:36;43.33;;;39.83;;
16804;SDS011;8520;50.102;20.010;2022-12-05T08:36:05;44.97;;;41.10;;
16804;SDS011;8520;50.102;20.010;2022-12-05T08:38:36;43.83;;;40.30;;
16804;SDS011;8520;50.102;20.010;2022-12-05T08:41:09;42.77;;;39.23;;
16804;SDS011;8520;50.102;20.010;2022-12-05T08:43:38;42.97;;;39.47;;
16804;SDS011;8520;50.102;20.010;2022-12-05T08:46:06;42.20;;;38.73;;
16804;SDS011;8520;50.102;20.010;2022-12-05T08:48:35;41.63;;;38.33;;
16804;SDS011;8520;50.102;20.010;2022-12-05T08:51:03;41.37;;;38.03;;
16804;SDS011;8520;50.102;20.010;2022-12-05T08:53:32;40.43;;;37.23;;
16804;SDS011;8520;50.102;20.010;2022-12-05T08:56:10;41.23;;;37.83;;
16804;SDS011;8520;50.102;20.010;2022-12-05T08:58:39;40.33;;;37.17;;
16804;SDS011;8520;50.102;20.010;2022-12-05T09:01:08;39.23;;;36.13;;
16804;SDS011;8520;50.102;20.010;2022-12-05T09:03:37;37.97;;;35.03;;
16804;SDS011;8520;50.102;20.010;2022-12-05T09:06:13;37.90;;;35.00;;
16804;SDS011;8520;50.102;20.010;2022-12-05T09:08:43;38.90;;;35.73;;
16804;SDS011;8520;50.102;20.010;2022-12-05T09:11:14;37.93;;;35.00;;
16804;SDS011;8520;50.102;20.010;2022-12-05T09:13:44;38.77;;;35.67;;
16804;SDS011;8520;50.102;20.010;2022-12-05T09:16:14;37.93;;;34.83;;
16804;SDS011;8520;50.102;20.010;2022-12-05T09:18:44;39.07;;;35.97;;
16804;SDS011;8520;50.102;20.010;2022-12-05T09:21:12;38.90;;;36.00;;
16804;SDS011;8520;50.102;20.010;2022-12-05T09:23:42;39.00;;;35.80;;
16804;SDS011;8520;50.102;20.010;2022-12-05T09:26:11;39.13;;;35.97;;
16804;SDS011;8520;50.102;20.010;2022-12-05T09:28:42;39.23;;;36.13;;
16804;SDS011;8520;50.102;20.010;2022-12-05T09:31:11;40.90;;;37.60;;
16804;SDS011;8520;50.102;20.010;2022-12-05T09:33:41;39.77;;;36.57;;
16804;SDS011;8520;50.102;20.010;2022-12-05T09:36:11;39.97;;;36.70;;
16804;SDS011;8520;50.102;20.010;2022-12-05T09:38:41;41.13;;;37.67;;
16804;SDS011;8520;50.102;20.010;2022-12-05T09:41:12;38.70;;;35.50;;
16804;SDS011;8520;50.102;20.010;2022-12-05T09:44:12;37.27;;;34.33;;
16804;SDS011;8520;50.102;20.010;2022-12-05T09:46:47;37.83;;;34.93;;
16804;SDS011;8520;50.102;20.010;2022-12-05T09:49:21;39.20;;;36.00;;
16804;SDS011;8520;50.102;20.010;2022-12-05T09:51:50;37.70;;;34.50;;
16804;SDS011;8520;50.102;20.010;2022-12-05T09:54:21;38.83;;;35.63;;
16804;SDS011;8520;50.102;20.010;2022-12-05T09:56:52;40.17;;;36.87;;
16804;SDS011;8520;50.102;20.010;2022-12-05T09:59:21;40.80;;;37.40;;
16804;SDS011;8520;50.102;20.010;2022-12-05T10:01:50;40.63;;;37.13;;
16804;SDS011;8520;50.102;20.010;2022-12-05T10:04:45;39.83;;;36.43;;
16804;SDS011;8520;50.102;20.010;2022-12-05T10:07:27;37.90;;;34.80;;
16804;SDS011;8520;50.102;20.010;2022-12-05T10:10:11;40.10;;;36.80;;
16804;SDS011;8520;50.102;20.010;2022-12-05T10:12:54;37.83;;;34.83;;
16804;SDS011;8520;50.102;20.010;2022-12-05T10:15:36;39.57;;;36.27;;
16804;SDS011;8520;50.102;20.010;2022-12-05T10:18:13;40.43;;;37.00;;
16804;SDS011;8520;50.102;20.010;2022-12-05T10:20:55;38.00;;;34.70;;
16804;SDS011;8520;50.102;20.010;2022-12-05T10:23:27;39.97;;;36.47;;
16804;SDS011;8520;50.102;20.010;2022-12-05T10:26:18;39.93;;;36.13;;
16804;SDS011;8520;50.102;20.010;2022-12-05T10:28:50;40.20;;;36.63;;
16804;SDS011;8520;50.102;20.010;2022-12-05T10:31:26;40.63;;;37.03;;
16804;SDS011;8520;50.102;20.010;2022-12-05T10:34:00;36.53;;;33.40;;
16804;SDS011;8520;50.102;20.010;2022-12-05T10:36:31;36.57;;;33.67;;
16804;SDS011;8520;50.102;20.010;2022-12-05T10:38:59;35.67;;;32.77;;
16804;SDS011;8520;50.102;20.010;2022-12-05T10:41:32;35.67;;;32.70;;
16804;SDS011;8520;50.102;20.010;2022-12-05T10:44:02;35.00;;;31.97;;
16804;SDS011;8520;50.102;20.010;2022-12-05T10:46:31;35.20;;;32.30;;
16804;SDS011;8520;50.102;20.010;2022-12-05T10:48:59;35.67;;;32.37;;
16804;SDS011;8520;50.102;20.010;2022-12-05T10:51:27;33.03;;;30.43;;
16804;SDS011;8520;50.102;20.010;2022-12-05T10:54:04;33.73;;;30.80;;
16804;SDS011;8520;50.102;20.010;2022-12-05T10:56:43;32.13;;;29.53;;
16804;SDS011;8520;50.102;20.010;2022-12-05T10:59:15;30.40;;;27.97;;
16804;SDS011;8520;50.102;20.010;2022-12-05T11:01:46;30.73;;;28.23;;
16804;SDS011;8520;50.102;20.010;2022-12-05T11:04:18;31.30;;;28.67;;
16804;SDS011;8520;50.102;20.010;2022-12-05T11:06:53;30.37;;;27.97;;
16804;SDS011;8520;50.102;20.010;2022-12-05T11:09:24;30.07;;;27.77;;
16804;SDS011;8520;50.102;20.010;2022-12-05T11:12:05;30.67;;;28.13;;
16804;SDS011;8520;50.102;20.010;2022-12-05T11:14:53;31.03;;;28.43;;
16804;SDS011;8520;50.102;20.010;2022-12-05T11:17:25;29.80;;;27.47;;
16804;SDS011;8520;50.102;20.010;2022-12-05T11:19:56;29.00;;;26.73;;
16804;SDS011;8520;50.102;20.010;2022-12-05T11:22:34;30.30;;;27.90;;
16804;SDS011;8520;50.102;20.010;2022-12-05T11:27:51;30.33;;;27.97;;
16804;SDS011;8520;50.102;20.010;2022-12-05T11:30:28;29.83;;;27.43;;
16804;SDS011;8520;50.102;20.010;2022-12-05T11:33:09;29.50;;;27.20;;
16804;SDS011;8520;50.102;20.010;2022-12-05T11:35:44;29.40;;;27.10;;
16804;SDS011;8520;50.102;20.010;2022-12-05T11:38:13;28.80;;;26.60;;
16804;SDS011;8520;50.102;20.010;2022-12-05T11:40:46;28.17;;;26.03;;
16804;SDS011;8520;50.102;20.010;2022-12-05T11:43:32;28.43;;;26.23;;
16804;SDS011;8520;50.102;20.010;2022-12-05T11:46:16;27.90;;;25.90;;
16804;SDS011;8520;50.102;20.010;2022-12-05T11:48:59;27.33;;;25.10;;
16804;SDS011;8520;50.102;20.010;2022-12-05T11:51:39;26.67;;;24.77;;
16804;SDS011;8520;50.102;20.010;2022-12-05T11:54:16;25.77;;;23.80;;
16804;SDS011;8520;50.102;20.010;2022-12-05T11:57:21;21.83;;;20.13;;
16804;SDS011;8520;50.102;20.010;2022-12-05T12:00:04;21.50;;;19.87;;
16804;SDS011;8520;50.102;20.010;2022-12-05T12:02:46;20.27;;;18.57;;
16804;SDS011;8520;50.102;20.010;2022-12-05T12:05:32;17.83;;;16.43;;
16804;SDS011;8520;50.102;20.010;2022-12-05T12:08:08;18.23;;;16.93;;
16804;SDS011;8520;50.102;20.010;2022-12-05T12:10:45;17.40;;;16.03;;
16804;SDS011;8520;50.102;20.010;2022-12-05T12:13:25;17.73;;;16.30;;
16804;SDS011;8520;50.102;20.010;2022-12-05T12:16:06;17.73;;;16.20;;
16804;SDS011;8520;50.102;20.010;2022-12-05T12:18:58;16.92;;;15.57;;
16804;SDS011;8520;50.102;20.010;2022-12-05T12:21:41;17.05;;;15.75;;
16804;SDS011;8520;50.102;20.010;2022-12-05T12:24:20;17.30;;;15.90;;
16804;SDS011;8520;50.102;20.010;2022-12-05T12:27:00;17.42;;;16.00;;
16804;SDS011;8520;50.102;20.010;2022-12-05T12:29:39;18.20;;;16.80;;
16804;SDS011;8520;50.102;20.010;2022-12-05T12:32:22;17.38;;;15.88;;
16804;SDS011;8520;50.102;20.010;2022-12-05T12:35:04;17.67;;;16.38;;
16804;SDS011;8520;50.102;20.010;2022-12-05T12:37:55;18.45;;;16.90;;
16804;SDS011;8520;50.102;20.010;2022-12-05T12:40:34;17.45;;;16.15;;
16804;SDS011;8520;50.102;20.010;2022-12-05T12:43:13;19.38;;;17.55;;
16804;SDS011;8520;50.102;20.010;2022-12-05T12:46:15;17.90;;;16.50;;
16804;SDS011;8520;50.102;20.010;2022-12-05T12:49:02;17.42;;;16.02;;
16804;SDS011;8520;50.102;20.010;2022-12-05T12:51:47;18.75;;;17.17;;
16804;SDS011;8520;50.102;20.010;2022-12-05T12:54:22;18.98;;;17.58;;
16804;SDS011;8520;50.102;20.010;2022-12-05T12:57:31;18.55;;;17.13;;
16804;SDS011;8520;50.102;20.010;2022-12-05T13:00:19;19.20;;;17.60;;
16804;SDS011;8520;50.102;20.010;2022-12-05T13:03:01;19.00;;;17.55;;
16804;SDS011;8520;50.102;20.010;2022-12-05T13:05:36;19.83;;;18.23;;
16804;SDS011;8520;50.102;20.010;2022-12-05T13:08:12;18.65;;;17.25;;
16804;SDS011;8520;50.102;20.010;2022-12-05T13:10:46;20.30;;;18.67;;
16804;SDS011;8520;50.102;20.010;2022-12-05T13:13:17;20.00;;;18.30;;
16804;SDS011;8520;50.102;20.010;2022-12-05T13:15:48;20.25;;;18.38;;
16804;SDS011;8520;50.102;20.010;2022-12-05T13:18:20;20.90;;;19.10;;
16804;SDS011;8520;50.102;20.010;2022-12-05T13:20:51;20.70;;;19.10;;
16804;SDS011;8520;50.102;20.010;2022-12-05T13:23:29;20.48;;;18.77;;
16804;SDS011;8520;50.102;20.010;2022-12-05T13:25:59;20.80;;;18.80;;
16804;SDS011;8520;50.102;20.010;2022-12-05T13:28:34;19.37;;;17.77;;
16804;SDS011;8520;50.102;20.010;2022-12-05T13:31:08;21.13;;;19.37;;
16804;SDS011;8520;50.102;20.010;2022-12-05T13:33:43;20.53;;;18.83;;
16804;SDS011;8520;50.102;20.010;2022-12-05T13:36:13;21.57;;;19.50;;
16804;SDS011;8520;50.102;20.010;2022-12-05T13:39:02;21.07;;;19.33;;
16804;SDS011;8520;50.102;20.010;2022-12-05T13:41:51;21.57;;;19.67;;
16804;SDS011;8520;50.102;20.010;2022-12-05T13:44:39;23.93;;;21.63;;
16804;SDS011;8520;50.102;20.010;2022-12-05T13:47:20;21.00;;;19.20;;
16804;SDS011;8520;50.102;20.010;2022-12-05T13:49:54;22.87;;;20.87;;
16804;SDS011;8520;50.102;20.010;2022-12-05T13:52:28;22.87;;;20.63;;
16804;SDS011;8520;50.102;20.010;2022-12-05T13:55:01;22.37;;;20.53;;
16804;SDS011;8520;50.102;20.010;2022-12-05T13:57:44;22.57;;;20.67;;
16804;SDS011;8520;50.102;20.010;2022-12-05T14:03:04;25.23;;;22.93;;
16804;SDS011;8520;50.102;20.010;2022-12-05T14:05:42;23.80;;;21.77;;
16804;SDS011;8520;50.102;20.010;2022-12-05T14:11:30;24.70;;;22.40;;
16804;SDS011;8520;50.102;20.010;2022-12-05T14:13:58;27.07;;;24.50;;
16804;SDS011;8520;50.102;20.010;2022-12-05T14:28:34;29.60;;;26.60;;
16804;SDS011;8520;50.102;20.010;2022-12-05T14:31:20;32.83;;;29.63;;
16804;SDS011;8520;50.102;20.010;2022-12-05T14:34:04;36.17;;;32.70;;
16804;SDS011;8520;50.102;20.010;2022-12-05T14:36:50;34.50;;;31.20;;
16804;SDS011;8520;50.102;20.010;2022-12-05T14:39:20;33.67;;;30.47;;
16804;SDS011;8520;50.102;20.010;2022-12-05T14:41:54;34.80;;;31.60;;
16804;SDS011;8520;50.102;20.010;2022-12-05T14:44:25;34.40;;;31.13;;
16804;SDS011;8520;50.102;20.010;2022-12-05T14:46:57;35.63;;;32.17;;
16804;SDS011;8520;50.102;20.010;2022-12-05T14:49:35;35.77;;;32.47;;
16804;SDS011;8520;50.102;20.010;2022-12-05T14:52:19;35.73;;;32.23;;
16804;SDS011;8520;50.102;20.010;2022-12-05T14:54:49;34.03;;;31.03;;
16804;SDS011;8520;50.102;20.010;2022-12-05T14:57:18;35.40;;;32.07;;
16804;SDS011;8520;50.102;20.010;2022-12-05T14:59:51;34.90;;;31.63;;
16804;SDS011;8520;50.102;20.010;2022-12-05T15:02:23;37.27;;;33.67;;
16804;SDS011;8520;50.102;20.010;2022-12-05T15:04:54;37.37;;;33.77;;
16804;SDS011;8520;50.102;20.010;2022-12-05T15:07:29;37.60;;;34.00;;
16804;SDS011;8520;50.102;20.010;2022-12-05T15:10:00;38.47;;;34.83;;
16804;SDS011;8520;50.102;20.010;2022-12-05T15:12:32;36.53;;;33.23;;
16804;SDS011;8520;50.102;20.010;2022-12-05T15:15:10;40.03;;;35.87;;
16804;SDS011;8520;50.102;20.010;2022-12-05T15:17:44;40.40;;;36.30;;
16804;SDS011;8520;50.102;20.010;2022-12-05T15:20:16;39.57;;;35.93;;
16804;SDS011;8520;50.102;20.010;2022-12-05T15:22:52;41.50;;;37.30;;
16804;SDS011;8520;50.102;20.010;2022-12-05T15:25:24;41.27;;;37.10;;